M I D A S
Marine Information and Data Acquisition System
Tripno 1075 of the Zeeleeuw from 2006-04-25 06:35:23 to 2006-04-25 15:41:12
Back to CruiseResearch ActivitiesStationsMapUnderway DataData graphs

EquipmentUnitsComment
TimeDGPSUTC
LatitudeDGPSDM.mWGS84
LongitudeDGPSDM.mWGS84
HeadingGyrodeg 
SOGDGPSknotsSpeed over ground
COGDGPSdegCourse over ground
DepthEcho soundermeters200 kHz
Missing or incorrect values are displayed as -999
Navigation data collected by the RV Zeeleeuw from 2006-04-25 06:35:04 to 2006-04-25 15:53:21
                                                                                    Next 1000 lines
Time Latitude Longitude Heading SOG COG Depth
2006-04-25 06:35:16 51°13.601 2°56.096 109.7 0.4 284 4.6
2006-04-25 06:35:20 51°13.601 2°56.095 109.6 0.7 292 4.7
2006-04-25 06:35:26 51°13.602 2°56.092 109.6 1.1 290 4.8
2006-04-25 06:35:30 51°13.602 2°56.09 109.9 1.3 291 4.9
2006-04-25 06:35:36 51°13.604 2°56.085 110.3 1.6 290 5.2
2006-04-25 06:35:41 51°13.605 2°56.081 110.6 1.8 292 -999
2006-04-25 06:35:46 51°13.606 2°56.076 110.9 2.2 290 -999
2006-04-25 06:35:51 51°13.607 2°56.071 111 2.6 291 -999
2006-04-25 06:35:56 51°13.609 2°56.064 111.3 3 290 4.7
2006-04-25 06:36:00 51°13.61 2°56.059 111.5 3.2 290 -999
2006-04-25 06:36:06 51°13.612 2°56.05 111.7 3.4 291 -999
2006-04-25 06:36:11 51°13.614 2°56.043 112.1 3.6 291 -999
2006-04-25 06:36:16 51°13.616 2°56.034 112.2 3.9 290 -999
2006-04-25 06:36:21 51°13.617 2°56.026 112.2 4 290 -999
2006-04-25 06:36:26 51°13.619 2°56.017 112 4.2 289 -999
2006-04-25 06:36:31 51°13.621 2°56.008 111.8 4.3 289 -999
2006-04-25 06:36:36 51°13.623 2°55.998 111.8 4.4 289 -999
2006-04-25 06:36:40 51°13.625 2°55.991 112 4.4 289 -999
2006-04-25 06:36:46 51°13.627 2°55.98 112.3 4.5 289 -999
2006-04-25 06:36:51 51°13.629 2°55.971 112.8 4.5 289 -999
2006-04-25 06:36:56 51°13.632 2°55.961 113.6 4.5 290 -999
2006-04-25 06:37:01 51°13.634 2°55.952 114.9 4.6 291 -999
2006-04-25 06:37:06 51°13.636 2°55.942 116.4 4.6 292 -999
2006-04-25 06:37:11 51°13.639 2°55.933 117.9 4.7 293 -999
2006-04-25 06:37:16 51°13.642 2°55.923 119.2 4.7 296 -999
2006-04-25 06:37:20 51°13.644 2°55.916 120.4 4.8 296 -999
2006-04-25 06:37:26 51°13.648 2°55.904 121.7 4.9 298 -999
2006-04-25 06:37:31 51°13.652 2°55.895 122.8 4.9 299 -999
2006-04-25 06:37:36 51°13.655 2°55.885 123.9 5 300 -999
2006-04-25 06:37:41 51°13.659 2°55.875 124.8 5.1 301 -999
2006-04-25 06:37:46 51°13.663 2°55.866 125.7 5.1 302 -999
2006-04-25 06:37:51 51°13.667 2°55.856 126.3 5.2 302 -999
2006-04-25 06:37:56 51°13.671 2°55.846 126.4 5.2 303 -999
2006-04-25 06:38:01 51°13.674 2°55.837 126.2 5.2 303 -999
2006-04-25 06:38:06 51°13.678 2°55.828 125.9 4.8 303 -999
2006-04-25 06:38:11 51°13.681 2°55.82 125.6 4.6 303 -999
2006-04-25 06:38:16 51°13.685 2°55.812 125 4.4 302 -999
2006-04-25 06:38:21 51°13.688 2°55.804 124.2 4.2 302 -999
2006-04-25 06:38:26 51°13.69 2°55.797 123.3 4 301 4.7
2006-04-25 06:38:31 51°13.693 2°55.789 122.1 3.9 301 4.7
2006-04-25 06:38:36 51°13.696 2°55.782 120.8 3.7 300 4.8
2006-04-25 06:38:41 51°13.698 2°55.776 119.6 3.6 299 -999
2006-04-25 06:38:46 51°13.7 2°55.769 117.6 3.4 298 -999
2006-04-25 06:38:51 51°13.702 2°55.763 115.9 3.2 296 -999
2006-04-25 06:38:56 51°13.704 2°55.757 114.3 3.1 296 -999
2006-04-25 06:39:01 51°13.705 2°55.752 112.6 2.7 293 -999
2006-04-25 06:39:06 51°13.706 2°55.747 110.9 2.4 293 -999
2006-04-25 06:39:10 51°13.707 2°55.743 108.5 2.1 290 4.7
2006-04-25 06:39:16 51°13.708 2°55.74 106.3 1.9 291 5.3
2006-04-25 06:39:20 51°13.708 2°55.738 104.1 1 292 -999
2006-04-25 06:39:26 51°13.709 2°55.739 100.8 0.3 331 10.2
2006-04-25 06:39:31 51°13.709 2°55.74 96.6 0.6 57 -999
2006-04-25 06:39:35 51°13.71 2°55.742 89.9 1.2 66 10.2
2006-04-25 06:39:40 51°13.711 2°55.746 82 1.7 64 10.1
2006-04-25 06:39:46 51°13.713 2°55.75 71.8 1.9 60 -999
2006-04-25 06:39:50 51°13.714 2°55.752 63.3 1.8 53 9.9
2006-04-25 06:39:55 51°13.715 2°55.755 57.3 1.7 51 4.8
2006-04-25 06:40:00 51°13.717 2°55.758 54.2 1.5 50 9.7
2006-04-25 06:40:06 51°13.718 2°55.76 51.5 1.1 49 4.7
2006-04-25 06:40:10 51°13.719 2°55.76 48.6 0.8 43 9.8
2006-04-25 06:40:15 51°13.719 2°55.761 45.4 0.5 53 9.7
2006-04-25 06:40:20 51°13.719 2°55.761 42.8 0.2 60 9.7
2006-04-25 06:40:26 51°13.718 2°55.761 40.4 0.2 189 -999
2006-04-25 06:40:30 51°13.718 2°55.761 38.7 0.5 208 -999
2006-04-25 06:40:36 51°13.716 2°55.759 37.3 0.9 209 9.7
2006-04-25 06:40:40 51°13.715 2°55.758 36.4 1.1 210 9.7
2006-04-25 06:40:46 51°13.713 2°55.756 35.3 1.5 211 -999
2006-04-25 06:40:51 51°13.71 2°55.754 34.5 1.9 209 -999
2006-04-25 06:40:56 51°13.707 2°55.751 33.1 2.4 210 -999
2006-04-25 06:41:01 51°13.704 2°55.749 31.9 2.4 209 -999
2006-04-25 06:41:06 51°13.702 2°55.747 30.8 2.2 205 -999
2006-04-25 06:41:11 51°13.699 2°55.745 30.1 2 207 -999
2006-04-25 06:41:16 51°13.697 2°55.743 29.8 1.8 204 -999
2006-04-25 06:41:21 51°13.695 2°55.742 29 1.5 203 -999
2006-04-25 06:41:26 51°13.694 2°55.742 27.4 0.9 198 -999
2006-04-25 06:41:31 51°13.694 2°55.741 24.7 0.5 206 -999
2006-04-25 06:41:36 51°13.695 2°55.741 21.4 0.1 297 -999
2006-04-25 06:41:40 51°13.696 2°55.741 17.3 0.7 2 -999
2006-04-25 06:41:46 51°13.698 2°55.741 11.7 1.2 359 -999
2006-04-25 06:41:51 51°13.7 2°55.74 5.7 1.6 353 -999
2006-04-25 06:41:56 51°13.703 2°55.739 359.5 2 349 -999
2006-04-25 06:42:01 51°13.706 2°55.738 353.5 2.3 346 -999
2006-04-25 06:42:06 51°13.71 2°55.736 348.6 2.7 340 4.7
2006-04-25 06:42:11 51°13.714 2°55.733 343.3 3 337 -999
2006-04-25 06:42:16 51°13.718 2°55.729 339.4 3.4 334 -999
2006-04-25 06:42:20 51°13.722 2°55.726 337.1 3.8 332 9.9
2006-04-25 06:42:26 51°13.728 2°55.721 336 4.1 332 9.8
2006-04-25 06:42:31 51°13.733 2°55.716 335.7 4.3 332 9.7
2006-04-25 06:42:36 51°13.739 2°55.711 335.7 4.5 332 -999
2006-04-25 06:42:40 51°13.744 2°55.707 335.6 4.9 333 9.7
2006-04-25 06:42:46 51°13.752 2°55.701 336 5 334 9.4
2006-04-25 06:42:51 51°13.758 2°55.696 336.2 5.2 333 9.2
2006-04-25 06:42:56 51°13.765 2°55.691 336.2 5.4 333 9.2
2006-04-25 06:43:00 51°13.771 2°55.686 336.1 5.5 333 9.4
2006-04-25 06:43:04 51°13.776 2°55.682 335.6 5.7 332 9.2
2006-04-25 06:43:10 51°13.785 2°55.674 335.5 5.7 332 9.4
2006-04-25 06:43:16 51°13.794 2°55.667 335.9 5.7 332 -999
2006-04-25 06:43:20 51°13.8 2°55.662 336.3 6 332 -999
2006-04-25 06:43:26 51°13.809 2°55.655 336.6 6.1 332 9.6
2006-04-25 06:43:30 51°13.815 2°55.65 336.8 6.2 333 9.4
2006-04-25 06:43:35 51°13.823 2°55.643 337.5 6.3 333 9.3
2006-04-25 06:43:41 51°13.832 2°55.636 338.2 6.3 334 -999
2006-04-25 06:43:44 51°13.837 2°55.632 339 6.4 335 9.3
2006-04-25 06:43:51 51°13.848 2°55.624 339.5 5 335 -999
2006-04-25 06:43:56 51°13.857 2°55.618 339.5 6.3 334 -999
2006-04-25 06:44:00 51°13.863 2°55.613 339.5 6.7 335 -999
2006-04-25 06:44:06 51°13.873 2°55.605 339.8 6.6 334 -999
2006-04-25 06:44:11 51°13.882 2°55.599 339.8 6.7 335 -999
2006-04-25 06:44:16 51°13.89 2°55.592 339.8 6.7 335 -999
2006-04-25 06:44:21 51°13.899 2°55.586 339.8 6.8 335 -999
2006-04-25 06:44:26 51°13.907 2°55.58 340.4 6.8 336 -999
2006-04-25 06:44:31 51°13.916 2°55.573 340.4 6.8 335 9.4
2006-04-25 06:44:36 51°13.925 2°55.567 340.4 6.9 335 -999
2006-04-25 06:44:40 51°13.931 2°55.562 340 6.9 335 -999
2006-04-25 06:44:46 51°13.942 2°55.554 339.6 7 335 9.3
2006-04-25 06:44:50 51°13.949 2°55.549 339.7 7 336 9.3
2006-04-25 06:44:56 51°13.96 2°55.542 340.4 7 336 9.3
2006-04-25 06:45:01 51°13.969 2°55.536 340.8 7 336 -999
2006-04-25 06:45:06 51°13.978 2°55.529 340.9 7 337 -999
2006-04-25 06:45:11 51°13.987 2°55.523 340.9 7.1 338 -999
2006-04-25 06:45:16 51°13.996 2°55.517 340.9 7.1 337 -999
2006-04-25 06:45:21 51°14.005 2°55.511 340.4 7.2 337 -999
2006-04-25 06:45:26 51°14.014 2°55.504 340.4 7.2 337 9.5
2006-04-25 06:45:31 51°14.024 2°55.497 340.4 7.3 336 9.5
2006-04-25 06:45:36 51°14.033 2°55.491 340.5 7.4 336 9.6
2006-04-25 06:45:41 51°14.042 2°55.484 340.7 7.4 336 9.5
2006-04-25 06:45:44 51°14.048 2°55.48 340.8 7.4 336 9.6
2006-04-25 06:45:51 51°14.061 2°55.471 341.1 7.5 336 9.6
2006-04-25 06:45:54 51°14.067 2°55.467 341.1 7.5 337 9.5
2006-04-25 06:46:00 51°14.079 2°55.459 341.4 7.5 337 9.5
2006-04-25 06:46:05 51°14.088 2°55.452 341.7 7.5 337 9.5
2006-04-25 06:46:10 51°14.098 2°55.446 341.5 7.5 336 9.5
2006-04-25 06:46:16 51°14.109 2°55.437 340.9 7.5 336 -999
2006-04-25 06:46:21 51°14.119 2°55.43 340.5 7.5 336 9.5
2006-04-25 06:46:26 51°14.128 2°55.424 340.4 7.6 336 9.5
2006-04-25 06:46:30 51°14.136 2°55.418 340.4 7.5 336 9.5
2006-04-25 06:46:36 51°14.147 2°55.41 340.2 7.5 335 9.5
2006-04-25 06:46:40 51°14.155 2°55.403 338.8 7.5 333 -999
2006-04-25 06:46:46 51°14.166 2°55.394 336.4 7.5 332 -999
2006-04-25 06:46:51 51°14.175 2°55.385 335.2 7.5 331 -999
2006-04-25 06:46:56 51°14.183 2°55.377 333.4 7.5 328 -999
2006-04-25 06:47:01 51°14.192 2°55.367 331.9 7.5 326 -999
2006-04-25 06:47:06 51°14.2 2°55.357 329.9 7.5 324 -999
2006-04-25 06:47:11 51°14.208 2°55.347 327.9 7.5 323 -999
2006-04-25 06:47:16 51°14.216 2°55.336 326.4 7.5 321 -999
2006-04-25 06:47:21 51°14.224 2°55.326 325.2 7.5 320 -999
2006-04-25 06:47:26 51°14.232 2°55.314 324.1 7.6 319 -999
2006-04-25 06:47:31 51°14.24 2°55.303 322.9 7.6 318 -999
2006-04-25 06:47:36 51°14.247 2°55.292 321.5 7.6 316 -999
2006-04-25 06:47:40 51°14.253 2°55.282 320 7.7 314 -999
2006-04-25 06:47:46 51°14.262 2°55.266 318.4 7.9 313 -999
2006-04-25 06:47:51 51°14.27 2°55.253 317.5 8.1 312 -999
2006-04-25 06:47:56 51°14.277 2°55.239 315.9 8.2 311 -999
2006-04-25 06:48:01 51°14.285 2°55.226 315.6 8.3 311 -999
2006-04-25 06:48:06 51°14.293 2°55.212 315.7 8.4 312 -999
2006-04-25 06:48:11 51°14.301 2°55.197 315.8 8.5 312 -999
2006-04-25 06:48:16 51°14.309 2°55.183 315.8 8.6 312 -999
2006-04-25 06:48:20 51°14.315 2°55.172 315.8 8.7 312 -999
2006-04-25 06:48:26 51°14.325 2°55.154 315.5 8.7 311 -999
2006-04-25 06:48:31 51°14.333 2°55.139 315 8.8 310 -999
2006-04-25 06:48:36 51°14.341 2°55.124 314.2 8.8 310 -999
2006-04-25 06:48:41 51°14.349 2°55.11 314.4 8.9 310 -999
2006-04-25 06:48:46 51°14.357 2°55.095 315.2 8.9 311 9.5
2006-04-25 06:48:50 51°14.364 2°55.083 316 8.9 312 9.3
2006-04-25 06:48:55 51°14.372 2°55.068 317 9 313 9.5
2006-04-25 06:49:00 51°14.381 2°55.054 317.2 9 313 9.7
2006-04-25 06:49:06 51°14.391 2°55.036 317.4 9.1 312 9.8
2006-04-25 06:49:10 51°14.398 2°55.023 317.5 9.2 312 9.4
2006-04-25 06:49:16 51°14.409 2°55.005 317.9 9.4 313 9.4
2006-04-25 06:49:20 51°14.415 2°54.992 318.3 9.5 312 9.4
2006-04-25 06:49:25 51°14.424 2°54.976 317.8 9.7 310 9.3
2006-04-25 06:49:30 51°14.433 2°54.959 317.1 9.8 309 9.4
2006-04-25 06:49:35 51°14.441 2°54.942 316.3 9.9 309 9.3
2006-04-25 06:49:40 51°14.45 2°54.924 315 10 307 9.4
2006-04-25 06:49:45 51°14.457 2°54.905 313.2 10.1 304 9.3
2006-04-25 06:49:51 51°14.466 2°54.882 311.1 10.2 301 9.3
2006-04-25 06:49:56 51°14.472 2°54.861 308.4 10.2 299 9.3
2006-04-25 06:50:00 51°14.476 2°54.845 304.8 10.2 293 9.3
2006-04-25 06:50:06 51°14.482 2°54.819 301.2 10.3 292 9.4
2006-04-25 06:50:10 51°14.486 2°54.802 298.5 10.4 290 9.4
2006-04-25 06:50:16 51°14.491 2°54.775 296.2 10.4 287 9.6
2006-04-25 06:50:20 51°14.494 2°54.757 294.2 10.5 286 9.6
2006-04-25 06:50:26 51°14.497 2°54.729 292 10.7 283 9.6
2006-04-25 06:50:30 51°14.499 2°54.709 289.3 11 279 9.6
2006-04-25 06:50:35 51°14.5 2°54.684 285.4 11.3 275 9.9
2006-04-25 06:50:40 51°14.5 2°54.659 281.6 11.5 272 9.5
2006-04-25 06:50:46 51°14.499 2°54.628 277.6 11.6 268 9.6
2006-04-25 06:50:50 51°14.497 2°54.608 273.6 11.7 265 10
2006-04-25 06:50:56 51°14.494 2°54.577 269.9 11.8 261 9.6
2006-04-25 06:51:00 51°14.49 2°54.556 265.6 12 256 10.1
2006-04-25 06:51:05 51°14.484 2°54.531 259.3 12.3 249 9.9
2006-04-25 06:51:10 51°14.476 2°54.506 255 12.5 246 9.6
2006-04-25 06:51:15 51°14.468 2°54.481 250.9 12.7 243 9.8
2006-04-25 06:51:20 51°14.46 2°54.455 248.2 12.8 243 9.9
2006-04-25 06:51:24 51°14.453 2°54.435 247.1 13.1 241 9.8
2006-04-25 06:51:30 51°14.442 2°54.404 245.9 13.1 241 9.7
2006-04-25 06:51:36 51°14.431 2°54.375 244.3 13.1 241 9.3
2006-04-25 06:51:40 51°14.423 2°54.354 243.2 13.3 239 9
2006-04-25 06:51:45 51°14.414 2°54.329 243.2 13.3 238 8.8
2006-04-25 06:51:50 51°14.404 2°54.304 242.8 13.3 237 8.7
2006-04-25 06:51:56 51°14.392 2°54.275 242.1 13.3 238 8.7
2006-04-25 06:52:00 51°14.384 2°54.254 242.4 13.3 238 8.7
2006-04-25 06:52:05 51°14.375 2°54.229 242.8 13.4 239 8.6
2006-04-25 06:52:10 51°14.365 2°54.203 243.4 13.5 239 8.6
2006-04-25 06:52:16 51°14.354 2°54.172 243.7 13.5 240 8.6
2006-04-25 06:52:20 51°14.347 2°54.152 244.2 13.5 240 8.5
2006-04-25 06:52:25 51°14.338 2°54.126 244.6 13.5 241 8.5
2006-04-25 06:52:30 51°14.329 2°54.099 245.1 13.5 242 8.5
2006-04-25 06:52:36 51°14.318 2°54.068 245.6 13.5 240 8.5
2006-04-25 06:52:40 51°14.31 2°54.047 245.5 13.6 241 8.6
2006-04-25 06:52:45 51°14.301 2°54.021 245.6 13.6 240 8.5
2006-04-25 06:52:50 51°14.292 2°53.995 245.3 13.6 241 8.5
2006-04-25 06:52:55 51°14.283 2°53.969 245.3 13.6 240 8.5
2006-04-25 06:53:00 51°14.274 2°53.943 244.9 13.6 240 8.5
2006-04-25 06:53:06 51°14.262 2°53.911 244.6 13.6 240 8.5
2006-04-25 06:53:10 51°14.255 2°53.891 244.6 13.6 240 8.5
2006-04-25 06:53:15 51°14.245 2°53.865 244.4 13.6 240 8.5
2006-04-25 06:53:20 51°14.235 2°53.839 244.3 13.6 240 8.5
2006-04-25 06:53:26 51°14.224 2°53.808 243.6 13.6 239 8.5
2006-04-25 06:53:30 51°14.216 2°53.787 243.1 13.6 238 8.5
2006-04-25 06:53:36 51°14.204 2°53.756 242.6 13.7 239 8.6
2006-04-25 06:53:40 51°14.196 2°53.735 243 13.7 239 8.5
2006-04-25 06:53:46 51°14.185 2°53.704 244 13.7 240 8.5
2006-04-25 06:53:50 51°14.178 2°53.683 244.4 13.7 241 8.6
2006-04-25 06:53:56 51°14.167 2°53.651 245.1 13.7 241 8.6
2006-04-25 06:54:00 51°14.16 2°53.63 245.4 13.7 241 8.6
2006-04-25 06:54:05 51°14.151 2°53.604 245.7 13.7 241 8.7
2006-04-25 06:54:10 51°14.141 2°53.577 245.9 13.7 241 8.7
2006-04-25 06:54:16 51°14.13 2°53.545 245.7 13.7 241 8.7
2006-04-25 06:54:20 51°14.123 2°53.524 245.6 13.7 240 8.7
2006-04-25 06:54:25 51°14.113 2°53.498 245.3 13.7 240 8.8
2006-04-25 06:54:30 51°14.103 2°53.472 244.5 13.7 240 8.7
2006-04-25 06:54:36 51°14.091 2°53.441 244 13.7 239 8.8
2006-04-25 06:54:40 51°14.083 2°53.42 243.4 13.7 238 8.8
2006-04-25 06:54:45 51°14.073 2°53.394 242.7 13.8 238 8.8
2006-04-25 06:54:50 51°14.063 2°53.369 242.6 13.7 238 8.8
2006-04-25 06:54:56 51°14.05 2°53.338 242 13.7 237 8.8
2006-04-25 06:55:00 51°14.042 2°53.318 241.1 13.7 236 8.9
2006-04-25 06:55:05 51°14.031 2°53.294 239.9 13.7 235 8.9
2006-04-25 06:55:10 51°14.019 2°53.269 239 13.7 234 8.9
2006-04-25 06:55:15 51°14.008 2°53.245 238.2 13.7 234 8.9
2006-04-25 06:55:20 51°13.997 2°53.22 237.7 13.7 233 8.9
2006-04-25 06:55:26 51°13.983 2°53.191 237.3 13.7 234 9
2006-04-25 06:55:30 51°13.975 2°53.171 237.6 13.7 235 9
2006-04-25 06:55:35 51°13.965 2°53.145 238.5 13.8 238 9
2006-04-25 06:55:40 51°13.955 2°53.119 241.9 13.8 240 9
2006-04-25 06:55:46 51°13.945 2°53.086 244.4 13.7 243 9
2006-04-25 06:55:50 51°13.938 2°53.064 246.7 13.7 244 9.1
2006-04-25 06:55:56 51°13.929 2°53.031 248.8 13.7 245 9.1
2006-04-25 06:56:00 51°13.922 2°53.009 249.6 13.7 245 9.2
2006-04-25 06:56:06 51°13.913 2°52.976 250.9 13.7 247 9.2
2006-04-25 06:56:10 51°13.908 2°52.953 251.8 13.8 247 9.2
2006-04-25 06:56:16 51°13.899 2°52.92 252.4 13.8 247 9.2
2006-04-25 06:56:20 51°13.893 2°52.898 252.5 13.7 247 9.2
2006-04-25 06:56:24 51°13.887 2°52.875 252.2 13.8 246 9.4
2006-04-25 06:56:31 51°13.875 2°52.837 251.3 13.7 246 9.4
2006-04-25 06:56:36 51°13.867 2°52.81 250.5 13.8 245 9.4
2006-04-25 06:56:40 51°13.861 2°52.788 249.7 13.8 244 9.4
2006-04-25 06:56:44 51°13.854 2°52.766 249.2 13.8 244 9.5
2006-04-25 06:56:50 51°13.844 2°52.733 248.8 13.8 244 9.4
2006-04-25 06:56:56 51°13.833 2°52.701 248.6 13.7 243 9.4
2006-04-25 06:57:00 51°13.827 2°52.679 248.6 13.8 244 9.4
2006-04-25 06:57:06 51°13.817 2°52.646 248.6 13.8 244 9.5
2006-04-25 06:57:10 51°13.81 2°52.624 249 13.8 245 9.5
2006-04-25 06:57:15 51°13.802 2°52.596 249.4 13.8 244 9.5
2006-04-25 06:57:20 51°13.794 2°52.569 249.4 13.8 244 9.5
2006-04-25 06:57:26 51°13.783 2°52.537 249 13.8 242 9.5
2006-04-25 06:57:30 51°13.776 2°52.515 248 13.8 243 9.6
2006-04-25 06:57:35 51°13.766 2°52.489 246.8 13.8 240 9.6
2006-04-25 06:57:40 51°13.757 2°52.463 245.5 13.8 240 9.6
2006-04-25 06:57:46 51°13.745 2°52.431 244.4 13.8 239 9.7
2006-04-25 06:57:50 51°13.737 2°52.411 243.9 13.7 239 9.6
2006-04-25 06:57:56 51°13.725 2°52.38 243.5 13.8 239 9.6
2006-04-25 06:58:00 51°13.717 2°52.359 243.3 13.8 238 9.6
2006-04-25 06:58:06 51°13.705 2°52.328 243.1 13.8 238 9.7
2006-04-25 06:58:10 51°13.697 2°52.308 243.1 13.7 238 9.7
2006-04-25 06:58:15 51°13.688 2°52.281 243.5 13.7 240 9.7
2006-04-25 06:58:20 51°13.678 2°52.255 244.6 13.7 241 9.7
2006-04-25 06:58:26 51°13.668 2°52.223 245.6 13.7 242 9.7
2006-04-25 06:58:31 51°13.659 2°52.196 246.9 13.6 243 9.7
2006-04-25 06:58:36 51°13.65 2°52.17 247.5 13.6 243 9.8
2006-04-25 06:58:40 51°13.643 2°52.149 247.9 13.6 243 9.8
2006-04-25 06:58:46 51°13.633 2°52.117 247.7 13.5 242 9.8
2006-04-25 06:58:50 51°13.626 2°52.096 247.5 13.5 242 9.7
2006-04-25 06:58:56 51°13.616 2°52.064 247.5 13.6 242 9.8
2006-04-25 06:59:00 51°13.609 2°52.043 247.5 13.5 242 9.8
2006-04-25 06:59:04 51°13.602 2°52.021 247.4 13.5 243 9.8
2006-04-25 06:59:10 51°13.591 2°51.99 247.4 13.5 242 9.8
2006-04-25 06:59:15 51°13.583 2°51.963 247.2 13.5 242 9.7
2006-04-25 06:59:20 51°13.574 2°51.937 247.2 13.5 242 9.9
2006-04-25 06:59:24 51°13.567 2°51.916 246.9 13.5 242 9.8
2006-04-25 06:59:30 51°13.556 2°51.885 247.1 13.5 242 9.9
2006-04-25 06:59:35 51°13.548 2°51.858 247 13.5 242 9.8
2006-04-25 06:59:40 51°13.539 2°51.832 246.9 13.5 242 9.9
2006-04-25 06:59:46 51°13.528 2°51.8 246.9 13.5 242 9.8
2006-04-25 06:59:50 51°13.521 2°51.779 247.1 13.5 243 9.8
2006-04-25 06:59:56 51°13.511 2°51.747 247.1 13.5 242 9.9
2006-04-25 07:00:00 51°13.503 2°51.726 247.2 13.5 243 10
2006-04-25 07:00:04 51°13.496 2°51.704 247.4 13.6 243 9.9
2006-04-25 07:00:10 51°13.486 2°51.672 247.4 13.6 243 9.9
2006-04-25 07:00:15 51°13.477 2°51.646 247.3 13.6 242 10
2006-04-25 07:00:20 51°13.468 2°51.62 246.9 13.5 242 10
2006-04-25 07:00:26 51°13.457 2°51.588 246.4 13.5 241 10
2006-04-25 07:00:30 51°13.45 2°51.567 245.6 13.6 241 10.1
2006-04-25 07:00:35 51°13.44 2°51.541 245.3 13.5 240 10.1
2006-04-25 07:00:40 51°13.43 2°51.516 244.5 13.5 239 10.1
2006-04-25 07:00:46 51°13.419 2°51.485 243.8 13.5 239 10.1
2006-04-25 07:00:51 51°13.409 2°51.46 243 13.5 238 10.1
2006-04-25 07:00:55 51°13.401 2°51.44 242.3 13.5 237 10
2006-04-25 07:01:00 51°13.391 2°51.415 242 13.5 238 10.1
2006-04-25 07:01:04 51°13.383 2°51.395 242 13.5 237 10.1
2006-04-25 07:01:10 51°13.371 2°51.364 242 13.5 238 10
2006-04-25 07:01:16 51°13.36 2°51.333 243 13.5 239 10
2006-04-25 07:01:20 51°13.352 2°51.312 244 13.5 240 10.1
2006-04-25 07:01:26 51°13.342 2°51.281 245.1 13.4 241 10.1
2006-04-25 07:01:30 51°13.334 2°51.26 245.8 13.5 241 10.1
2006-04-25 07:01:36 51°13.324 2°51.229 245.8 13.5 242 10.1
2006-04-25 07:01:40 51°13.317 2°51.208 246.3 13.4 241 10.2
2006-04-25 07:01:46 51°13.306 2°51.177 246.3 13.5 242 10.2
2006-04-25 07:01:50 51°13.299 2°51.156 246.2 13.5 241 10.3
2006-04-25 07:01:56 51°13.288 2°51.124 246.1 13.5 242 10.3
2006-04-25 07:02:00 51°13.281 2°51.103 246.1 13.5 242 10.2
2006-04-25 07:02:06 51°13.27 2°51.072 246.2 13.5 242 10.3
2006-04-25 07:02:10 51°13.263 2°51.051 246.4 13.5 242 10.3
2006-04-25 07:02:15 51°13.254 2°51.025 246.4 13.5 241 10.3
2006-04-25 07:02:20 51°13.245 2°50.998 245.9 13.5 241 10.3
2006-04-25 07:02:24 51°13.238 2°50.978 246 13.5 241 10.3
2006-04-25 07:02:30 51°13.227 2°50.946 246 13.5 242 10.4
2006-04-25 07:02:35 51°13.218 2°50.92 246.2 13.5 241 10.3
2006-04-25 07:02:40 51°13.209 2°50.894 246 13.5 242 10.4
2006-04-25 07:02:43 51°13.204 2°50.878 246.3 13.4 241 10.3
2006-04-25 07:02:50 51°13.191 2°50.842 245.8 13.4 241 10.4
2006-04-25 07:02:55 51°13.182 2°50.817 244.6 13.4 239 10.4
2006-04-25 07:03:00 51°13.172 2°50.791 243.8 13.4 239 10.3
2006-04-25 07:03:04 51°13.164 2°50.771 243.2 13.4 238 10.4
2006-04-25 07:03:10 51°13.152 2°50.741 242 13.5 237 10.4
2006-04-25 07:03:16 51°13.14 2°50.711 241.6 13.4 237 10.4
2006-04-25 07:03:20 51°13.131 2°50.691 241.2 13.4 236 10.4
2006-04-25 07:03:26 51°13.119 2°50.661 240.9 13.5 237 10.5
2006-04-25 07:03:30 51°13.111 2°50.641 241.4 13.5 238 10.5
2006-04-25 07:03:36 51°13.1 2°50.61 242.2 13.5 239 10.5
2006-04-25 07:03:40 51°13.093 2°50.59 244 13.4 240 10.5
2006-04-25 07:03:46 51°13.082 2°50.558 244.3 13.5 241 10.6
2006-04-25 07:03:50 51°13.074 2°50.538 244.8 13.5 240 10.5
2006-04-25 07:03:56 51°13.063 2°50.507 245.4 13.5 242 10.5
2006-04-25 07:04:00 51°13.056 2°50.486 245.5 13.5 241 10.5
2006-04-25 07:04:06 51°13.045 2°50.454 245.5 13.5 241 10.5
2006-04-25 07:04:10 51°13.038 2°50.433 245.6 13.5 241 10.5
2006-04-25 07:04:16 51°13.027 2°50.402 245.7 13.5 242 10.5
2006-04-25 07:04:20 51°13.02 2°50.381 246.1 13.5 242 10.6
2006-04-25 07:04:24 51°13.013 2°50.36 246.2 13.5 242 10.6
2006-04-25 07:04:30 51°13.002 2°50.328 246.5 13.5 242 10.6
2006-04-25 07:04:35 51°12.993 2°50.302 246.4 13.5 242 10.6
2006-04-25 07:04:40 51°12.984 2°50.276 245.8 13.5 241 10.6
2006-04-25 07:04:43 51°12.979 2°50.26 245.4 13.5 241 10.6
2006-04-25 07:04:50 51°12.966 2°50.224 245.1 13.6 241 10.7
2006-04-25 07:04:55 51°12.957 2°50.198 245 13.5 240 10.7
2006-04-25 07:05:00 51°12.947 2°50.172 244.5 13.5 240 10.7
2006-04-25 07:05:04 51°12.94 2°50.151 244.5 13.5 241 10.7
2006-04-25 07:05:10 51°12.929 2°50.12 244.5 13.5 240 10.7
2006-04-25 07:05:16 51°12.918 2°50.089 244.4 13.5 241 10.7
2006-04-25 07:05:20 51°12.911 2°50.068 244.7 13.5 241 10.7
2006-04-25 07:05:26 51°12.9 2°50.036 245.3 13.5 242 10.7
2006-04-25 07:05:30 51°12.893 2°50.015 245.5 13.5 242 10.8
2006-04-25 07:05:36 51°12.882 2°49.984 245.6 13.5 242 10.8
2006-04-25 07:05:40 51°12.875 2°49.962 245.8 13.5 242 10.8
2006-04-25 07:05:44 51°12.868 2°49.941 246 13.5 242 10.8
2006-04-25 07:05:51 51°12.855 2°49.905 245.9 13.5 241 10.8
2006-04-25 07:05:56 51°12.846 2°49.878 245.5 13.5 241 10.9
2006-04-25 07:06:00 51°12.839 2°49.857 245.5 13.5 242 10.9
2006-04-25 07:06:06 51°12.828 2°49.826 245.4 13.5 241 10.9
2006-04-25 07:06:10 51°12.821 2°49.805 245.3 13.5 241 10.9
2006-04-25 07:06:16 51°12.811 2°49.773 245.5 13.5 242 10.9
2006-04-25 07:06:20 51°12.804 2°49.752 245.9 13.5 242 10.9
2006-04-25 07:06:25 51°12.795 2°49.726 245.8 13.5 241 10.9
2006-04-25 07:06:30 51°12.786 2°49.7 245.7 13.5 242 10.9
2006-04-25 07:06:36 51°12.775 2°49.668 245.7 13.5 241 11
2006-04-25 07:06:40 51°12.767 2°49.648 245.4 13.5 240 11
2006-04-25 07:06:46 51°12.756 2°49.617 244.9 13.5 241 11
2006-04-25 07:06:50 51°12.749 2°49.596 244.7 13.5 241 11
2006-04-25 07:06:56 51°12.738 2°49.565 244.7 13.5 241 11
2006-04-25 07:07:00 51°12.731 2°49.544 245 13.5 242 11
2006-04-25 07:07:06 51°12.72 2°49.512 245.5 13.4 241 11
2006-04-25 07:07:10 51°12.713 2°49.492 245.5 13.5 242 11
2006-04-25 07:07:15 51°12.704 2°49.466 245.5 13.5 241 11.1
2006-04-25 07:07:20 51°12.695 2°49.44 245.7 13.5 242 11.1
2006-04-25 07:07:26 51°12.684 2°49.409 245.3 13.4 241 11.1
2006-04-25 07:07:30 51°12.677 2°49.388 245 13.4 241 11.1
2006-04-25 07:07:35 51°12.668 2°49.362 245.1 13.4 241 11.1
2006-04-25 07:07:40 51°12.659 2°49.336 245.1 13.4 241 11.1
2006-04-25 07:07:45 51°12.65 2°49.31 245.5 13.4 242 11.1
2006-04-25 07:07:50 51°12.642 2°49.283 245.8 13.4 242 11.2
2006-04-25 07:07:56 51°12.631 2°49.252 246 13.4 242 11.2
2006-04-25 07:08:00 51°12.624 2°49.232 246 13.4 241 11.2
2006-04-25 07:08:04 51°12.617 2°49.211 245.3 13.4 241 11.2
2006-04-25 07:08:10 51°12.606 2°49.179 244.9 13.4 241 11.2
2006-04-25 07:08:16 51°12.595 2°49.148 244.4 13.4 240 11.2
2006-04-25 07:08:20 51°12.588 2°49.127 244.3 13.4 240 11.2
2006-04-25 07:08:26 51°12.576 2°49.096 243.9 13.4 240 11.3
2006-04-25 07:08:30 51°12.569 2°49.075 243.6 13.4 240 11.3
2006-04-25 07:08:36 51°12.558 2°49.045 243.2 13.5 240 11.2
2006-04-25 07:08:40 51°12.551 2°49.024 243.8 13.5 241 11.3
2006-04-25 07:08:44 51°12.543 2°49.003 244.3 13.4 241 11.3
2006-04-25 07:08:50 51°12.532 2°48.972 244.5 13.5 241 11.3
2006-04-25 07:08:55 51°12.523 2°48.946 244.8 13.4 241 11.3
2006-04-25 07:09:00 51°12.514 2°48.92 245.1 13.4 241 11.3
2006-04-25 07:09:04 51°12.507 2°48.899 245.2 13.4 241 11.3
2006-04-25 07:09:10 51°12.497 2°48.868 245.3 13.4 241 11.3
2006-04-25 07:09:15 51°12.488 2°48.842 245.4 13.4 241 11.4
2006-04-25 07:09:20 51°12.479 2°48.816 245.4 13.4 241 11.3
2006-04-25 07:09:26 51°12.468 2°48.785 245.4 13.4 241 11.3
2006-04-25 07:09:31 51°12.459 2°48.759 245.4 13.4 241 11.3
2006-04-25 07:09:35 51°12.452 2°48.738 245.3 13.4 241 11.4
2006-04-25 07:09:40 51°12.443 2°48.713 245.3 13.4 241 11.4
2006-04-25 07:09:46 51°12.432 2°48.681 245.3 13.4 241 11.4
2006-04-25 07:09:50 51°12.425 2°48.66 245.3 13.4 241 11.4
2006-04-25 07:09:56 51°12.414 2°48.63 245 13.4 241 11.4
2006-04-25 07:10:00 51°12.407 2°48.609 244.6 13.4 241 11.4
2006-04-25 07:10:05 51°12.398 2°48.583 244.6 13.4 241 11.5
2006-04-25 07:10:10 51°12.389 2°48.558 244.5 13.3 241 11.4
2006-04-25 07:10:16 51°12.378 2°48.527 244.6 13.4 241 11.4
2006-04-25 07:10:20 51°12.371 2°48.506 244.9 13.4 241 11.5
2006-04-25 07:10:25 51°12.362 2°48.48 245.3 13.4 241 11.5
2006-04-25 07:10:30 51°12.353 2°48.454 245.3 13.3 242 11.4
2006-04-25 07:10:36 51°12.342 2°48.423 245.5 13.3 241 11.5
2006-04-25 07:10:40 51°12.335 2°48.403 245.3 13.3 241 11.5
2006-04-25 07:10:46 51°12.324 2°48.372 245.2 13.3 241 11.5
2006-04-25 07:10:50 51°12.317 2°48.351 245 13.3 241 11.5
2006-04-25 07:10:56 51°12.306 2°48.321 244.6 13.4 241 11.5
2006-04-25 07:11:00 51°12.299 2°48.3 244.5 13.4 241 11.5
2006-04-25 07:11:04 51°12.291 2°48.279 244.3 13.4 240 11.6
2006-04-25 07:11:10 51°12.281 2°48.249 244.6 13.3 241 11.5
2006-04-25 07:11:15 51°12.272 2°48.223 244.7 13.3 240 11.5
2006-04-25 07:11:20 51°12.263 2°48.197 244.6 13.3 241 11.5
2006-04-25 07:11:26 51°12.252 2°48.167 244.6 13.4 240 11.5
2006-04-25 07:11:30 51°12.245 2°48.146 244.7 13.3 241 11.6
2006-04-25 07:11:35 51°12.236 2°48.12 244.9 13.3 241 11.6
2006-04-25 07:11:40 51°12.227 2°48.094 245.4 13.4 242 11.6
2006-04-25 07:11:46 51°12.218 2°48.062 246.6 13.4 243 11.6
2006-04-25 07:11:50 51°12.211 2°48.041 247.9 13.3 245 11.7
2006-04-25 07:11:55 51°12.204 2°48.014 249.1 13.3 246 11.7
2006-04-25 07:12:00 51°12.196 2°47.987 250 13.3 246 11.7
2006-04-25 07:12:06 51°12.188 2°47.955 250.8 13.3 246 11.7
2006-04-25 07:12:10 51°12.182 2°47.933 251 13.4 247 11.7
2006-04-25 07:12:15 51°12.174 2°47.906 251 13.4 246 11.7
2006-04-25 07:12:20 51°12.167 2°47.879 250.9 13.3 246 11.7
2006-04-25 07:12:23 51°12.162 2°47.863 250.4 13.4 246 11.8
2006-04-25 07:12:31 51°12.15 2°47.82 249.9 13.4 245 11.8
2006-04-25 07:12:36 51°12.142 2°47.794 249.5 13.3 245 11.7
2006-04-25 07:12:40 51°12.135 2°47.773 248.7 13.3 244 11.7
2006-04-25 07:12:44 51°12.129 2°47.751 248.7 13.3 245 11.8
2006-04-25 07:12:51 51°12.119 2°47.714 249.4 13.3 246 11.8
2006-04-25 07:12:56 51°12.112 2°47.686 250.2 13.3 247 11.7
2006-04-25 07:13:00 51°12.106 2°47.665 250.9 13.3 247 11.8
2006-04-25 07:13:06 51°12.098 2°47.632 251.6 13.3 247 11.9
2006-04-25 07:13:10 51°12.092 2°47.61 251.9 13.3 248 11.8
2006-04-25 07:13:15 51°12.085 2°47.583 252.3 13.3 248 11.9
2006-04-25 07:13:20 51°12.078 2°47.556 252.5 13.3 248 11.9
2006-04-25 07:13:26 51°12.07 2°47.523 252.5 13.3 248 11.9
2006-04-25 07:13:30 51°12.065 2°47.501 252.9 13.3 248 11.9
2006-04-25 07:13:35 51°12.057 2°47.474 252.6 13.3 248 12
2006-04-25 07:13:40 51°12.05 2°47.447 252.2 13.3 247 12
2006-04-25 07:13:46 51°12.042 2°47.414 251.7 13.3 247 12.1
2006-04-25 07:13:50 51°12.036 2°47.393 251.4 13.3 247 12.1
2006-04-25 07:13:56 51°12.027 2°47.36 251.1 13.4 247 12
2006-04-25 07:14:00 51°12.021 2°47.339 250.9 13.4 247 12
2006-04-25 07:14:06 51°12.013 2°47.306 251.1 13.3 248 12
2006-04-25 07:14:10 51°12.007 2°47.284 251.6 13.3 248 12
2006-04-25 07:14:15 51°12 2°47.257 251.8 13.4 248 12
2006-04-25 07:14:20 51°11.993 2°47.23 252 13.3 248 12.1
2006-04-25 07:14:26 51°11.985 2°47.197 252 13.3 248 12.1
2006-04-25 07:14:31 51°11.978 2°47.17 252 13.3 248 12.2
2006-04-25 07:14:36 51°11.97 2°47.143 251.9 13.3 247 12.1
2006-04-25 07:14:40 51°11.965 2°47.121 251.7 13.3 247 12.1
2006-04-25 07:14:45 51°11.958 2°47.094 251.4 13.3 246 12.1
2006-04-25 07:14:51 51°11.948 2°47.062 250.9 13.3 246 12.1
2006-04-25 07:14:56 51°11.941 2°47.035 250 13.3 246 12.1
2006-04-25 07:15:00 51°11.935 2°47.013 249.8 13.3 246 12
2006-04-25 07:15:06 51°11.926 2°46.981 249.7 13.3 246 12.1
2006-04-25 07:15:10 51°11.92 2°46.96 249.8 13.3 247 12.2
2006-04-25 07:15:16 51°11.911 2°46.927 250.8 13.3 247 12.1
2006-04-25 07:15:20 51°11.906 2°46.905 251.2 13.3 248 12.2
2006-04-25 07:15:26 51°11.898 2°46.872 252.5 13.3 249 12.1
2006-04-25 07:15:30 51°11.893 2°46.85 253.6 13.4 250 12.2
2006-04-25 07:15:36 51°11.886 2°46.816 254.5 13.3 251 12.2
2006-04-25 07:15:40 51°11.881 2°46.794 255.5 13.3 251 12.2
2006-04-25 07:15:44 51°11.877 2°46.772 255.6 13.3 252 12.2
2006-04-25 07:15:50 51°11.87 2°46.738 256.4 13.4 252 12.2
2006-04-25 07:15:55 51°11.865 2°46.71 256.7 13.4 253 12.3
2006-04-25 07:16:00 51°11.859 2°46.682 257.1 13.4 253 12.2
2006-04-25 07:16:06 51°11.852 2°46.647 257.3 13.4 253 12.3
2006-04-25 07:16:10 51°11.848 2°46.625 257.3 13.4 253 12.3
2006-04-25 07:16:15 51°11.842 2°46.597 257.3 13.4 253 12.4
2006-04-25 07:16:20 51°11.836 2°46.569 257 13.4 252 12.4
2006-04-25 07:16:26 51°11.829 2°46.535 256.8 13.5 252 12.4
2006-04-25 07:16:30 51°11.825 2°46.512 256.2 13.5 251 12.4
2006-04-25 07:16:35 51°11.818 2°46.484 255.7 13.4 251 12.4
2006-04-25 07:16:40 51°11.812 2°46.456 255.2 13.4 250 12.4
2006-04-25 07:16:44 51°11.807 2°46.434 254.7 13.5 250 12.4
2006-04-25 07:16:50 51°11.799 2°46.4 254.3 13.5 249 12.5
2006-04-25 07:16:56 51°11.792 2°46.367 253.9 13.5 250 12.4
2006-04-25 07:17:00 51°11.787 2°46.344 254.1 13.5 250 12.4
2006-04-25 07:17:06 51°11.779 2°46.311 254.1 13.5 250 12.4
2006-04-25 07:17:10 51°11.774 2°46.288 254.6 13.5 251 12.4
2006-04-25 07:17:15 51°11.768 2°46.26 254.9 13.5 252 12.5
2006-04-25 07:17:20 51°11.762 2°46.232 255.4 13.5 251 12.4
2006-04-25 07:17:26 51°11.755 2°46.198 255.9 13.5 252 12.4
2006-04-25 07:17:30 51°11.751 2°46.175 256.4 13.5 253 12.5
2006-04-25 07:17:36 51°11.744 2°46.141 256.9 13.5 252 12.4
2006-04-25 07:17:40 51°11.74 2°46.118 256.9 13.5 252 12.4
2006-04-25 07:17:44 51°11.735 2°46.096 256.4 13.5 252 12.4
2006-04-25 07:17:50 51°11.728 2°46.062 256 13.4 251 12.5
2006-04-25 07:17:56 51°11.72 2°46.028 255.3 13.5 251 12.5
2006-04-25 07:18:00 51°11.715 2°46.006 254.7 13.4 251 12.5
2006-04-25 07:18:06 51°11.708 2°45.973 254 13.4 250 12.5
2006-04-25 07:18:10 51°11.702 2°45.95 253.9 13.5 250 12.5
2006-04-25 07:18:15 51°11.696 2°45.922 253.8 13.5 250 12.5
2006-04-25 07:18:20 51°11.689 2°45.895 253.8 13.4 249 12.5
2006-04-25 07:18:24 51°11.684 2°45.873 253.2 13.4 249 12.5
2006-04-25 07:18:30 51°11.676 2°45.839 253 13.4 250 12.5
2006-04-25 07:18:35 51°11.67 2°45.812 253.3 13.4 250 12.4
2006-04-25 07:18:40 51°11.664 2°45.784 254.1 13.3 252 12.5
2006-04-25 07:18:46 51°11.658 2°45.75 255.4 13.3 252 12.5
2006-04-25 07:18:50 51°11.654 2°45.728 256.1 13.3 254 12.4
2006-04-25 07:18:56 51°11.648 2°45.694 257.2 13.3 254 12.5
2006-04-25 07:19:00 51°11.644 2°45.671 257.8 13.3 255 12.5
2006-04-25 07:19:06 51°11.638 2°45.637 258.1 13.3 255 12.5
2006-04-25 07:19:10 51°11.634 2°45.615 258.5 13.3 254 12.5
2006-04-25 07:19:16 51°11.628 2°45.581 258.4 13.3 255 12.5
2006-04-25 07:19:20 51°11.624 2°45.558 258.2 13.3 254 12.5
2006-04-25 07:19:24 51°11.619 2°45.536 257.8 13.3 253 12.5
2006-04-25 07:19:30 51°11.613 2°45.502 257.6 13.2 253 12.5
2006-04-25 07:19:36 51°11.606 2°45.469 257.3 13.2 252 12.5
2006-04-25 07:19:40 51°11.602 2°45.447 256.6 13.2 252 12.5
2006-04-25 07:19:46 51°11.595 2°45.414 256.7 13.2 253 12.5
2006-04-25 07:19:50 51°11.591 2°45.391 256.7 13.2 252 12.5
2006-04-25 07:19:56 51°11.583 2°45.358 256.4 13.2 251 12.5
2006-04-25 07:20:00 51°11.579 2°45.336 256.2 13.2 252 12.5
2006-04-25 07:20:04 51°11.574 2°45.314 256.2 13.2 252 12.5
2006-04-25 07:20:10 51°11.568 2°45.28 256.6 13.2 252 12.5
2006-04-25 07:20:15 51°11.562 2°45.253 257 13.2 253 12.5
2006-04-25 07:20:20 51°11.557 2°45.225 257.6 13.2 253 12.5
2006-04-25 07:20:26 51°11.551 2°45.191 257.8 13.3 253 12.5
2006-04-25 07:20:30 51°11.547 2°45.169 257.6 13.3 253 12.4
2006-04-25 07:20:35 51°11.541 2°45.141 257.8 13.3 253 12.5
2006-04-25 07:20:40 51°11.536 2°45.113 257.6 13.2 253 12.5
2006-04-25 07:20:46 51°11.529 2°45.08 257.5 13.2 253 12.5
2006-04-25 07:20:50 51°11.525 2°45.057 257.1 13.2 253 12.5
2006-04-25 07:20:55 51°11.52 2°45.029 257.2 13.2 253 12.4
2006-04-25 07:21:00 51°11.515 2°45.001 257.4 13.2 253 12.4
2006-04-25 07:21:04 51°11.511 2°44.979 258 13.2 254 12.5
2006-04-25 07:21:10 51°11.505 2°44.945 258.2 13.2 254 12.5
2006-04-25 07:21:16 51°11.499 2°44.911 258.3 13.3 254 12.5
2006-04-25 07:21:20 51°11.495 2°44.889 258.4 13.3 254 12.5
2006-04-25 07:21:26 51°11.489 2°44.855 258.4 13.3 254 12.4
2006-04-25 07:21:30 51°11.485 2°44.832 258.3 13.3 254 12.4
2006-04-25 07:21:36 51°11.478 2°44.799 258.2 13.2 254 12.5
2006-04-25 07:21:40 51°11.474 2°44.776 258.1 13.3 253 12.4
2006-04-25 07:21:46 51°11.468 2°44.742 257.6 13.3 254 12.5
2006-04-25 07:21:50 51°11.463 2°44.72 257.6 13.2 253 12.4
2006-04-25 07:21:56 51°11.457 2°44.686 257.2 13.3 253 12.4
2006-04-25 07:22:00 51°11.453 2°44.664 257 13.3 253 12.5
2006-04-25 07:22:06 51°11.446 2°44.63 256.9 13.3 253 12.5
2006-04-25 07:22:10 51°11.442 2°44.607 256.7 13.3 253 12.4
2006-04-25 07:22:16 51°11.435 2°44.574 256.9 13.3 253 12.5
2006-04-25 07:22:20 51°11.431 2°44.551 257.7 13.3 254 12.4
2006-04-25 07:22:23 51°11.428 2°44.534 257.6 13.3 254 12.5
2006-04-25 07:22:30 51°11.421 2°44.495 257.8 13.2 254 12.4
2006-04-25 07:22:36 51°11.415 2°44.461 257.7 13.3 254 12.5
2006-04-25 07:22:40 51°11.411 2°44.438 258.1 13.3 254 12.5
2006-04-25 07:22:46 51°11.405 2°44.404 258.1 13.3 255 12.4
2006-04-25 07:22:50 51°11.401 2°44.382 258.5 13.3 255 12.5
2006-04-25 07:22:55 51°11.396 2°44.354 258.6 13.2 255 12.5
2006-04-25 07:23:00 51°11.391 2°44.326 258.4 13.3 254 12.5
2006-04-25 07:23:06 51°11.385 2°44.292 258.2 13.3 254 12.5
2006-04-25 07:23:10 51°11.381 2°44.269 257.8 13.3 254 12.4
2006-04-25 07:23:15 51°11.375 2°44.241 257.3 13.2 253 12.4
2006-04-25 07:23:20 51°11.37 2°44.213 257 13.3 253 12.5
2006-04-25 07:23:26 51°11.363 2°44.18 256.4 13.3 253 12.5
2006-04-25 07:23:30 51°11.359 2°44.157 256.3 13.3 253 12.4
2006-04-25 07:23:35 51°11.354 2°44.129 256.4 13.3 253 12.5
2006-04-25 07:23:40 51°11.348 2°44.101 256.7 13.3 253 12.5
2006-04-25 07:23:44 51°11.344 2°44.078 257.1 13.3 254 12.5
2006-04-25 07:23:50 51°11.338 2°44.044 257.3 13.3 254 12.5
2006-04-25 07:23:56 51°11.332 2°44.01 257.3 13.3 254 12.5
2006-04-25 07:24:00 51°11.328 2°43.988 257.1 13.3 254 12.5
2006-04-25 07:24:06 51°11.322 2°43.954 257.4 13.3 254 12.4
2006-04-25 07:24:10 51°11.317 2°43.931 257.5 13.3 254 12.6
2006-04-25 07:24:16 51°11.311 2°43.898 257.5 13.3 253 12.6
2006-04-25 07:24:20 51°11.307 2°43.875 257.2 13.2 253 12.4
2006-04-25 07:24:23 51°11.304 2°43.858 256.9 13.3 253 12.4
2006-04-25 07:24:30 51°11.296 2°43.819 256.5 13.3 253 12.4
2006-04-25 07:24:36 51°11.289 2°43.786 256.2 13.3 252 12.5
2006-04-25 07:24:40 51°11.284 2°43.764 256 13.3 252 12.5
2006-04-25 07:24:46 51°11.278 2°43.73 255.9 13.3 253 12.5
2006-04-25 07:24:50 51°11.273 2°43.708 255.7 13.3 253 12.5
2006-04-25 07:24:55 51°11.268 2°43.68 256.4 13.2 254 12.5
2006-04-25 07:25:00 51°11.263 2°43.651 256.9 13.3 253 12.5
2006-04-25 07:25:06 51°11.257 2°43.617 257.2 13.3 254 12.5
2006-04-25 07:25:10 51°11.253 2°43.595 257.6 13.3 254 12.4
2006-04-25 07:25:15 51°11.248 2°43.567 257.8 13.3 255 12.5
2006-04-25 07:25:20 51°11.243 2°43.538 258 13.3 254 12.5
2006-04-25 07:25:23 51°11.24 2°43.521 258.4 13.3 255 12.5
2006-04-25 07:25:31 51°11.232 2°43.476 258.7 13.3 255 12.5
2006-04-25 07:25:35 51°11.228 2°43.454 258.9 13.3 255 12.5
2006-04-25 07:25:40 51°11.223 2°43.425 258.4 13.3 254 12.5
2006-04-25 07:25:44 51°11.219 2°43.403 257.7 13.3 254 12.5
2006-04-25 07:25:50 51°11.213 2°43.369 257.3 13.3 253 12.5
2006-04-25 07:25:56 51°11.206 2°43.336 256.7 13.3 253 12.5
2006-04-25 07:26:00 51°11.201 2°43.314 256.1 13.2 252 12.5
2006-04-25 07:26:06 51°11.195 2°43.28 255.4 13.3 252 12.5
2006-04-25 07:26:10 51°11.19 2°43.258 255.3 13.2 251 12.5
2006-04-25 07:26:15 51°11.184 2°43.23 254.9 13.2 252 12.5
2006-04-25 07:26:20 51°11.179 2°43.202 255.6 13.2 254 12.5
2006-04-25 07:26:26 51°11.174 2°43.168 257.2 13.2 255 12.5
2006-04-25 07:26:31 51°11.169 2°43.14 258.6 13.2 256 12.5
2006-04-25 07:26:36 51°11.165 2°43.112 259.8 13.2 257 12.6
2006-04-25 07:26:40 51°11.162 2°43.089 260.4 13.2 257 12.5
2006-04-25 07:26:44 51°11.159 2°43.066 261 13.2 257 12.6
2006-04-25 07:26:50 51°11.155 2°43.032 261.2 13.2 258 12.6
2006-04-25 07:26:56 51°11.15 2°42.997 261.6 13.2 258 12.6
2006-04-25 07:27:00 51°11.147 2°42.975 261.6 13.2 258 12.6
2006-04-25 07:27:06 51°11.143 2°42.94 262 13.2 258 12.6
2006-04-25 07:27:10 51°11.14 2°42.917 262 13.2 259 12.6
2006-04-25 07:27:15 51°11.137 2°42.889 262.5 13.2 259 12.6
2006-04-25 07:27:20 51°11.134 2°42.86 263.2 13.2 260 12.5
2006-04-25 07:27:24 51°11.131 2°42.837 264.1 13.2 261 12.6
2006-04-25 07:27:30 51°11.128 2°42.803 265 13.2 262 12.6
2006-04-25 07:27:35 51°11.126 2°42.774 265.9 13.2 263 12.5
2006-04-25 07:27:40 51°11.124 2°42.745 266.8 13.2 263 12.6
2006-04-25 07:27:46 51°11.122 2°42.71 267.1 13.2 264 12.6
2006-04-25 07:27:51 51°11.12 2°42.681 267.5 13.2 264 12.6
2006-04-25 07:27:56 51°11.119 2°42.652 267.8 13.2 264 12.5
2006-04-25 07:28:00 51°11.118 2°42.629 268.6 13.2 266 12.5
2006-04-25 07:28:06 51°11.117 2°42.594 269.8 13.2 266 12.5
2006-04-25 07:28:10 51°11.116 2°42.57 270.8 13.2 268 12.5
2006-04-25 07:28:15 51°11.116 2°42.541 272 13.1 269 12.5
2006-04-25 07:28:20 51°11.116 2°42.512 272.9 13.2 270 12.5
2006-04-25 07:28:25 51°11.116 2°42.485 273.6 12.5 270 12.5
2006-04-25 07:28:30 51°11.116 2°42.459 273.9 11.9 270 12.5
2006-04-25 07:28:36 51°11.116 2°42.43 274.2 11.2 270 12.4
2006-04-25 07:28:40 51°11.116 2°42.411 274.5 10.7 271 12.6
2006-04-25 07:28:45 51°11.116 2°42.389 274.5 10.2 271 12.5
2006-04-25 07:28:51 51°11.116 2°42.364 274.5 9.9 270 12.5
2006-04-25 07:28:56 51°11.116 2°42.343 274.3 9.4 270 12.5
2006-04-25 07:29:00 51°11.116 2°42.327 274.1 9.3 270 12.5
2006-04-25 07:29:04 51°11.116 2°42.312 273.8 8.6 269 12.5
2006-04-25 07:29:10 51°11.116 2°42.29 273.3 8.3 269 12.5
2006-04-25 07:29:16 51°11.115 2°42.27 272.8 7.8 268 12.5
2006-04-25 07:29:20 51°11.115 2°42.257 272.1 7.6 268 12.4
2006-04-25 07:29:24 51°11.115 2°42.244 271.3 7.3 267 12.5
2006-04-25 07:29:30 51°11.114 2°42.226 270.5 7.1 267 12.4
2006-04-25 07:29:35 51°11.113 2°42.211 269.7 6.8 265 12.5
2006-04-25 07:29:40 51°11.112 2°42.197 269 6.6 265 12.4
2006-04-25 07:29:46 51°11.112 2°42.18 268.7 6.4 265 12.5
2006-04-25 07:29:50 51°11.111 2°42.17 268.6 6.2 265 12.4
2006-04-25 07:29:55 51°11.11 2°42.157 268.8 5.8 266 12.4
2006-04-25 07:30:00 51°11.11 2°42.145 268.9 5.7 266 12.4
2006-04-25 07:30:06 51°11.109 2°42.131 269.3 5.4 267 12.4
2006-04-25 07:30:10 51°11.109 2°42.122 270.1 5.2 267 12.5
2006-04-25 07:30:15 51°11.109 2°42.111 270.9 4.9 268 12.4
2006-04-25 07:30:20 51°11.109 2°42.101 271.7 4.7 270 12.4
2006-04-25 07:30:24 51°11.109 2°42.093 272.2 4.3 270 12.4
2006-04-25 07:30:30 51°11.109 2°42.083 272.6 3.9 270 12.5
2006-04-25 07:30:35 51°11.109 2°42.077 273.1 3.1 271 12.4
2006-04-25 07:30:40 51°11.11 2°42.072 274.9 2.5 272 12.4
2006-04-25 07:30:45 51°11.11 2°42.069 277.9 1.5 274 12.4
2006-04-25 07:30:50 51°11.11 2°42.068 280.3 1 271 12.4
2006-04-25 07:30:56 51°11.11 2°42.067 281.6 0.3 261 12.4
2006-04-25 07:31:00 51°11.109 2°42.068 282.5 0.1 118 12.4
2006-04-25 07:31:04 51°11.109 2°42.068 283.7 0.2 95 12.5
2006-04-25 07:31:10 51°11.109 2°42.068 285.3 0.2 84 12.5
2006-04-25 07:31:16 51°11.109 2°42.069 287.5 0.1 110 -999
2006-04-25 07:31:20 51°11.109 2°42.069 289.5 0.1 78 -999
2006-04-25 07:31:26 51°11.109 2°42.069 292 0.2 79 -999
2006-04-25 07:31:31 51°11.109 2°42.069 294.2 0.1 81 -999
2006-04-25 07:31:36 51°11.109 2°42.07 296.3 0.1 94 -999
2006-04-25 07:31:41 51°11.109 2°42.07 298.3 0.1 99 -999
2006-04-25 07:31:46 51°11.109 2°42.07 300.3 0.1 92 -999
2006-04-25 07:31:51 51°11.11 2°42.071 302 0.1 100 -999
2006-04-25 07:31:56 51°11.11 2°42.071 303.7 0.2 81 -999
2006-04-25 07:32:01 51°11.11 2°42.072 305.4 0.2 102 -999
2006-04-25 07:32:06 51°11.11 2°42.072 307.2 0.2 98 -999
2006-04-25 07:32:11 51°11.11 2°42.073 308.4 0.2 98 12.5
2006-04-25 07:32:15 51°11.11 2°42.073 309.8 0.2 99 12.5
2006-04-25 07:32:20 51°11.11 2°42.074 310.6 0.2 88 12.5
2006-04-25 07:32:26 51°11.11 2°42.074 311.8 0.2 100 12.4
2006-04-25 07:32:30 51°11.11 2°42.075 313 0.2 88 4.7
2006-04-25 07:32:36 51°11.11 2°42.076 314.7 0.2 96 -999
2006-04-25 07:32:41 51°11.11 2°42.076 315.9 0.3 78 12.5
2006-04-25 07:32:46 51°11.11 2°42.077 317.6 0.2 89 -999
2006-04-25 07:32:51 51°11.11 2°42.077 318.6 0.3 83 12.4
2006-04-25 07:32:56 51°11.11 2°42.078 319.6 0.3 85 12.5
2006-04-25 07:33:00 51°11.11 2°42.078 320.6 0.3 87 12.4
2006-04-25 07:33:05 51°11.11 2°42.079 321.5 0.2 95 12.5
2006-04-25 07:33:10 51°11.11 2°42.079 322.4 0.3 80 12.4
2006-04-25 07:33:16 51°11.11 2°42.08 323.3 0.2 89 12.5
2006-04-25 07:33:20 51°11.11 2°42.08 324.4 0.3 85 12.5
2006-04-25 07:33:26 51°11.11 2°42.081 326 0.3 79 12.5
2006-04-25 07:33:30 51°11.11 2°42.082 327.4 0.3 79 12.5
2006-04-25 07:33:35 51°11.11 2°42.083 329.1 0.3 79 12.5
2006-04-25 07:33:40 51°11.11 2°42.083 330.2 0.3 84 12.5
2006-04-25 07:33:46 51°11.11 2°42.084 331.6 0.3 79 12.5
2006-04-25 07:33:50 51°11.11 2°42.085 333 0.3 79 12.5
2006-04-25 07:33:56 51°11.111 2°42.086 334.2 0.3 79 12.5
2006-04-25 07:34:00 51°11.111 2°42.086 336 0.3 80 12.5
2006-04-25 07:34:06 51°11.111 2°42.087 337.2 0.4 77 12.5
2006-04-25 07:34:10 51°11.111 2°42.088 338.6 0.3 81 12.5
2006-04-25 07:34:15 51°11.111 2°42.088 339.7 0.3 83 12.5
2006-04-25 07:34:20 51°11.111 2°42.089 341 0.3 80 12.5
2006-04-25 07:34:26 51°11.111 2°42.09 342 0.3 79 12.6
2006-04-25 07:34:30 51°11.111 2°42.091 343.3 0.4 81 12.5
2006-04-25 07:34:35 51°11.111 2°42.091 344.1 0.4 81 12.5
2006-04-25 07:34:40 51°11.111 2°42.092 345.1 0.4 80 12.5
2006-04-25 07:34:46 51°11.111 2°42.093 346.4 0.4 79 12.5
2006-04-25 07:34:50 51°11.112 2°42.094 347.3 0.4 75 12.5
2006-04-25 07:34:55 51°11.112 2°42.095 348.2 0.4 82 12.5
2006-04-25 07:35:00 51°11.112 2°42.096 349.1 0.4 79 12.5
2006-04-25 07:35:04 51°11.112 2°42.096 350.1 0.4 81 12.5
2006-04-25 07:35:10 51°11.112 2°42.097 351 0.4 84 12.5
2006-04-25 07:35:15 51°11.112 2°42.098 351.9 0.4 83 12.5
2006-04-25 07:35:20 51°11.112 2°42.099 352.5 0.4 83 12.5
2006-04-25 07:35:25 51°11.112 2°42.099 353.6 0.4 81 12.5
2006-04-25 07:35:30 51°11.112 2°42.1 354.2 0.4 83 12.5
2006-04-25 07:35:36 51°11.112 2°42.101 355 0.4 84 12.5
2006-04-25 07:35:40 51°11.112 2°42.102 355.6 0.4 81 12.6
2006-04-25 07:35:46 51°11.112 2°42.103 356 0.4 85 12.6
2006-04-25 07:35:50 51°11.112 2°42.103 356.5 0.4 87 12.6
2006-04-25 07:35:56 51°11.112 2°42.104 357 0.4 85 12.6
2006-04-25 07:36:00 51°11.112 2°42.105 357.7 0.4 82 12.6
2006-04-25 07:36:06 51°11.112 2°42.106 358.1 0.4 83 12.6
2006-04-25 07:36:10 51°11.112 2°42.107 358.7 0.4 86 12.6
2006-04-25 07:36:15 51°11.112 2°42.108 359.2 0.4 82 12.6
2006-04-25 07:36:20 51°11.112 2°42.109 359.7 0.4 83 12.6
2006-04-25 07:36:24 51°11.112 2°42.109 -999 0.4 84 12.6
2006-04-25 07:36:30 51°11.112 2°42.11 0.1 0.4 86 12.6
2006-04-25 07:36:35 51°11.113 2°42.112 0.5 0.4 82 12.6
2006-04-25 07:36:40 51°11.113 2°42.113 0.7 0.4 83 12.5
2006-04-25 07:36:46 51°11.113 2°42.114 1.1 0.4 81 12.6
2006-04-25 07:36:50 51°11.113 2°42.114 1.4 0.4 82 12.6
2006-04-25 07:36:55 51°11.113 2°42.115 1.5 0.4 80 12.6
2006-04-25 07:37:00 51°11.113 2°42.116 1.7 0.4 81 12.6
2006-04-25 07:37:06 51°11.112 2°42.117 1.8 0.5 77 12.6
2006-04-25 07:37:10 51°11.112 2°42.117 2 0.5 77 12.6
2006-04-25 07:37:15 51°11.112 2°42.118 2.1 0.5 80 12.6
2006-04-25 07:37:20 51°11.113 2°42.119 2 0.5 82 12.6
2006-04-25 07:37:26 51°11.113 2°42.12 2.1 0.4 79 12.6
2006-04-25 07:37:31 51°11.113 2°42.121 2.1 0.4 79 12.6
2006-04-25 07:37:36 51°11.113 2°42.122 1.8 0.4 77 12.6
2006-04-25 07:37:40 51°11.113 2°42.123 1.6 0.4 79 12.6
2006-04-25 07:37:45 51°11.114 2°42.124 1.3 0.4 76 12.6
2006-04-25 07:37:51 51°11.114 2°42.125 1.2 0.5 74 12.6
2006-04-25 07:37:56 51°11.114 2°42.126 0.8 0.4 73 12.6
2006-04-25 07:38:00 51°11.114 2°42.127 0.8 0.5 72 12.6
2006-04-25 07:38:06 51°11.114 2°42.128 0.6 0.4 74 12.6
2006-04-25 07:38:10 51°11.115 2°42.129 0.4 0.5 75 12.6
2006-04-25 07:38:16 51°11.115 2°42.13 0.1 0.5 74 12.6
2006-04-25 07:38:20 51°11.115 2°42.131 -999 0.5 71 12.7
2006-04-25 07:38:26 51°11.115 2°42.132 -999 0.5 77 12.6
2006-04-25 07:38:30 51°11.115 2°42.133 -999 0.5 72 12.7
2006-04-25 07:38:36 51°11.115 2°42.134 -999 0.5 74 12.6
2006-04-25 07:38:40 51°11.116 2°42.135 -999 0.5 69 12.6
2006-04-25 07:38:46 51°11.116 2°42.136 -999 0.6 71 12.7
2006-04-25 07:38:50 51°11.116 2°42.137 -999 0.5 68 12.7
2006-04-25 07:38:55 51°11.116 2°42.138 359.8 0.5 69 12.7
2006-04-25 07:39:00 51°11.116 2°42.139 359.8 0.5 70 12.7
2006-04-25 07:39:06 51°11.117 2°42.14 359.7 0.5 71 12.6
2006-04-25 07:39:10 51°11.117 2°42.141 359.5 0.5 68 12.7
2006-04-25 07:39:15 51°11.117 2°42.141 359.2 0.5 71 12.7
2006-04-25 07:39:20 51°11.118 2°42.142 359.2 0.5 67 12.7
2006-04-25 07:39:26 51°11.118 2°42.144 358.9 0.5 69 12.7
2006-04-25 07:39:30 51°11.118 2°42.145 358.6 0.5 69 12.7
2006-04-25 07:39:36 51°11.118 2°42.146 358.4 0.5 70 12.7
2006-04-25 07:39:40 51°11.118 2°42.146 358.2 0.5 70 12.7
2006-04-25 07:39:46 51°11.119 2°42.148 357.9 0.5 68 12.6
2006-04-25 07:39:51 51°11.119 2°42.149 357.5 0.5 72 12.6
2006-04-25 07:39:56 51°11.119 2°42.15 357.2 0.5 69 12.6
2006-04-25 07:40:00 51°11.119 2°42.151 357.1 0.5 68 12.6
2006-04-25 07:40:06 51°11.12 2°42.152 356.9 0.5 71 12.6
2006-04-25 07:40:10 51°11.12 2°42.153 356.8 0.6 71 12.7
2006-04-25 07:40:16 51°11.12 2°42.154 356.5 0.5 70 12.7
2006-04-25 07:40:20 51°11.12 2°42.155 356.3 0.6 70 12.7
2006-04-25 07:40:26 51°11.12 2°42.156 356.3 0.5 71 12.7
2006-04-25 07:40:30 51°11.12 2°42.157 356 0.6 70 12.7
2006-04-25 07:40:36 51°11.121 2°42.158 355.8 0.5 72 12.8
2006-04-25 07:40:40 51°11.121 2°42.16 355.5 0.6 72 12.7
2006-04-25 07:40:46 51°11.122 2°42.161 355.4 0.5 73 12.7
2006-04-25 07:40:50 51°11.122 2°42.162 355.2 0.6 75 12.7
2006-04-25 07:40:56 51°11.122 2°42.164 354.9 0.6 71 12.7
2006-04-25 07:41:01 51°11.123 2°42.165 355 0.6 73 12.7
2006-04-25 07:41:06 51°11.123 2°42.166 355.1 0.6 75 12.6
2006-04-25 07:41:10 51°11.123 2°42.167 355.3 0.6 73 12.6
2006-04-25 07:41:15 51°11.123 2°42.169 355.6 0.6 74 12.6
2006-04-25 07:41:20 51°11.123 2°42.17 355.8 0.6 75 12.7
2006-04-25 07:41:26 51°11.124 2°42.172 355.9 0.6 76 12.7
2006-04-25 07:41:30 51°11.124 2°42.173 356.2 0.6 74 12.7
2006-04-25 07:41:35 51°11.124 2°42.174 356.2 0.6 74 12.7
2006-04-25 07:41:40 51°11.124 2°42.175 356.3 0.6 77 12.7
2006-04-25 07:41:46 51°11.124 2°42.177 356.6 0.6 75 12.7
2006-04-25 07:41:50 51°11.124 2°42.177 356.7 0.6 77 12.7
2006-04-25 07:41:56 51°11.125 2°42.179 357 0.6 75 12.7
2006-04-25 07:42:00 51°11.125 2°42.18 357.2 0.6 75 12.7
2006-04-25 07:42:06 51°11.125 2°42.182 357.3 0.6 77 12.7
2006-04-25 07:42:11 51°11.125 2°42.183 357.3 0.6 76 12.7
2006-04-25 07:42:16 51°11.125 2°42.184 357.3 0.6 75 12.8
2006-04-25 07:42:20 51°11.126 2°42.185 357.3 0.6 72 12.8
2006-04-25 07:42:25 51°11.126 2°42.186 357.2 0.6 76 12.8
2006-04-25 07:42:31 51°11.127 2°42.188 357.2 0.6 74 12.7
2006-04-25 07:42:36 51°11.127 2°42.19 357 0.6 75 12.7
2006-04-25 07:42:40 51°11.127 2°42.191 357.3 0.6 75 12.7
2006-04-25 07:42:46 51°11.127 2°42.192 357.4 0.6 75 12.7
2006-04-25 07:42:50 51°11.127 2°42.194 357.5 0.6 75 12.8
2006-04-25 07:42:55 51°11.128 2°42.195 357.5 0.7 72 12.8
2006-04-25 07:43:00 51°11.128 2°42.197 357.6 0.7 74 12.8
2006-04-25 07:43:04 51°11.128 2°42.198 357.7 0.6 74 12.8
2006-04-25 07:43:10 51°11.128 2°42.2 357.7 0.7 76 12.8
2006-04-25 07:43:15 51°11.129 2°42.201 357.6 0.7 78 12.8
2006-04-25 07:43:21 51°11.129 2°42.203 357.6 0.7 75 12.8
2006-04-25 07:43:26 51°11.129 2°42.204 357.7 0.7 76 12.8
2006-04-25 07:43:30 51°11.129 2°42.206 357.8 0.7 77 12.8
2006-04-25 07:43:36 51°11.13 2°42.208 357.9 0.7 78 12.8
2006-04-25 07:43:40 51°11.13 2°42.209 358.1 0.7 76 12.8
2006-04-25 07:43:46 51°11.13 2°42.211 358.3 0.7 78 12.8
2006-04-25 07:43:50 51°11.13 2°42.212 358.5 0.7 78 12.8
2006-04-25 07:43:56 51°11.131 2°42.214 358.6 0.7 78 12.8
2006-04-25 07:44:00 51°11.131 2°42.215 358.7 0.7 76 12.8
2006-04-25 07:44:06 51°11.131 2°42.217 358.7 0.7 75 12.8
2006-04-25 07:44:10 51°11.131 2°42.218 358.6 0.7 76 12.8
2006-04-25 07:44:15 51°11.131 2°42.219 358.5 0.7 78 12.8
2006-04-25 07:44:20 51°11.132 2°42.221 358.5 0.7 77 12.8
2006-04-25 07:44:25 51°11.132 2°42.223 358.5 0.8 76 12.8
2006-04-25 07:44:30 51°11.132 2°42.224 358.5 0.7 76 12.8
2006-04-25 07:44:36 51°11.133 2°42.226 358.4 0.7 74 12.8
2006-04-25 07:44:40 51°11.133 2°42.228 358.4 0.8 75 12.8
2006-04-25 07:44:45 51°11.133 2°42.229 358.5 0.7 75 12.8
2006-04-25 07:44:50 51°11.133 2°42.231 358.5 0.7 76 12.8
2006-04-25 07:44:56 51°11.134 2°42.233 358.7 0.7 73 12.8
2006-04-25 07:45:00 51°11.134 2°42.234 358.8 0.7 75 12.8
2006-04-25 07:45:06 51°11.134 2°42.236 359.1 0.8 74 12.8
2006-04-25 07:45:10 51°11.134 2°42.237 359.1 0.8 73 12.8
2006-04-25 07:45:15 51°11.135 2°42.239 359.2 0.7 75 12.8
2006-04-25 07:45:20 51°11.135 2°42.24 359.2 0.8 75 12.8
2006-04-25 07:45:26 51°11.135 2°42.243 359.3 0.8 74 12.8
2006-04-25 07:45:30 51°11.136 2°42.244 359.3 0.8 74 12.8
2006-04-25 07:45:35 51°11.136 2°42.245 359.3 0.8 75 12.9
2006-04-25 07:45:40 51°11.136 2°42.247 359.4 0.8 74 12.8
2006-04-25 07:45:46 51°11.136 2°42.249 359.5 0.8 74 12.8
2006-04-25 07:45:50 51°11.137 2°42.251 359.7 0.8 75 12.8
2006-04-25 07:45:55 51°11.137 2°42.252 -999 0.8 75 12.8
2006-04-25 07:46:00 51°11.137 2°42.254 0.1 0.8 76 12.9
2006-04-25 07:46:04 51°11.137 2°42.255 0.2 0.8 75 12.9
2006-04-25 07:46:11 51°11.138 2°42.258 0.3 0.8 78 12.9
2006-04-25 07:46:16 51°11.138 2°42.259 0.3 0.8 75 12.9
2006-04-25 07:46:20 51°11.138 2°42.261 0.3 0.8 72 12.8
2006-04-25 07:46:26 51°11.138 2°42.263 -999 0.8 75 12.9
2006-04-25 07:46:30 51°11.139 2°42.264 0.2 0.8 76 12.9
2006-04-25 07:46:36 51°11.139 2°42.266 -999 0.8 77 12.9
2006-04-25 07:46:40 51°11.139 2°42.267 -999 0.8 73 12.9
2006-04-25 07:46:46 51°11.139 2°42.269 359.8 0.8 69 12.9
2006-04-25 07:46:50 51°11.139 2°42.27 359.9 0.8 72 12.9
2006-04-25 07:46:56 51°11.14 2°42.273 359.8 0.8 74 12.9
2006-04-25 07:47:00 51°11.14 2°42.274 359.7 0.9 74 12.9
2006-04-25 07:47:06 51°11.141 2°42.276 359.3 0.9 73 13
2006-04-25 07:47:10 51°11.141 2°42.278 359.2 0.8 73 12.9
2006-04-25 07:47:16 51°11.141 2°42.28 359 0.9 76 13
2006-04-25 07:47:20 51°11.142 2°42.281 358.9 0.8 74 12.9
2006-04-25 07:47:23 51°11.142 2°42.282 358.6 0.9 75 12.9
2006-04-25 07:47:30 51°11.142 2°42.284 358.4 0.8 70 12.9
2006-04-25 07:47:36 51°11.143 2°42.287 358.2 1 57 12.9
2006-04-25 07:47:40 51°11.144 2°42.288 357.2 1.1 45 12.9
2006-04-25 07:47:46 51°11.146 2°42.29 355.9 1.3 36 12.8
2006-04-25 07:47:50 51°11.148 2°42.291 354.1 1.4 28 12.8
2006-04-25 07:47:55 51°11.15 2°42.291 351.9 1.5 19 12.8
2006-04-25 07:48:00 51°11.152 2°42.292 349.1 1.6 14 12.8
2006-04-25 07:48:04 51°11.153 2°42.292 346 1.6 6 12.9
2006-04-25 07:48:10 51°11.156 2°42.293 342.8 1.7 2 12.9
2006-04-25 07:48:16 51°11.159 2°42.292 339.6 1.8 356 12.9
2006-04-25 07:48:20 51°11.161 2°42.291 336 1.8 354 12.9
2006-04-25 07:48:26 51°11.165 2°42.29 332.7 1.9 349 12.8
2006-04-25 07:48:30 51°11.167 2°42.289 329.1 2 343 12.8
2006-04-25 07:48:35 51°11.169 2°42.288 325.6 2 338 12.9
2006-04-25 07:48:40 51°11.172 2°42.285 322.2 2 337 12.9
2006-04-25 07:48:46 51°11.175 2°42.282 318.6 2 331 12.8
2006-04-25 07:48:50 51°11.177 2°42.28 314.9 2.1 323 12.8
2006-04-25 07:48:56 51°11.179 2°42.276 311.1 2.1 318 12.8
2006-04-25 07:49:00 51°11.181 2°42.274 307.1 2.1 315 12.8
2006-04-25 07:49:03 51°11.182 2°42.272 303.3 2.2 310 12.8
2006-04-25 07:49:11 51°11.185 2°42.265 299.4 2.2 305 12.8
2006-04-25 07:49:16 51°11.186 2°42.261 295.4 2.2 300 12.8
2006-04-25 07:49:20 51°11.187 2°42.257 291.3 2.2 297 12.7
2006-04-25 07:49:26 51°11.188 2°42.252 287.2 2.2 293 12.7
2006-04-25 07:49:30 51°11.189 2°42.248 283 2.2 286 12.8
2006-04-25 07:49:36 51°11.19 2°42.242 279 2.2 284 12.7
2006-04-25 07:49:40 51°11.19 2°42.239 274.5 2.2 275 12.7
2006-04-25 07:49:43 51°11.19 2°42.236 270 2.2 268 12.7
2006-04-25 07:49:50 51°11.189 2°42.229 265.4 2.2 261 12.7
2006-04-25 07:49:56 51°11.188 2°42.223 260.5 2.2 256 12.7
2006-04-25 07:50:01 51°11.186 2°42.219 255.5 2.2 252 12.7
2006-04-25 07:50:06 51°11.185 2°42.214 250.3 2.2 244 12.7
2006-04-25 07:50:10 51°11.183 2°42.211 244.9 2.2 237 12.7
2006-04-25 07:50:16 51°11.181 2°42.207 239.5 2.2 228 12.7
2006-04-25 07:50:20 51°11.178 2°42.204 234.1 2.2 224 12.7
2006-04-25 07:50:26 51°11.175 2°42.201 228.6 2.3 216 12.7
2006-04-25 07:50:30 51°11.173 2°42.199 223 2.4 210 12.7
2006-04-25 07:50:36 51°11.169 2°42.196 217.7 2.5 205 12.7
2006-04-25 07:50:40 51°11.166 2°42.194 213.4 2.6 203 12.8
2006-04-25 07:50:46 51°11.162 2°42.192 210.5 2.7 200 12.8
2006-04-25 07:50:50 51°11.159 2°42.19 208.4 2.9 197 12.9
2006-04-25 07:50:55 51°11.155 2°42.188 207 3 196 12.9
2006-04-25 07:51:00 51°11.15 2°42.187 206.4 3.1 195 12.8
2006-04-25 07:51:03 51°11.148 2°42.186 206.6 3.2 197 12.9
2006-04-25 07:51:11 51°11.141 2°42.182 207.7 3.3 197 12.9
2006-04-25 07:51:16 51°11.137 2°42.18 209.4 3.3 200 12.9
2006-04-25 07:51:20 51°11.133 2°42.177 211.2 3.4 202 12.9
2006-04-25 07:51:26 51°11.128 2°42.173 213.2 3.4 204 12.9
2006-04-25 07:51:30 51°11.125 2°42.17 216.3 3.4 207 13
2006-04-25 07:51:36 51°11.12 2°42.166 219.2 3.4 209 13
2006-04-25 07:51:40 51°11.117 2°42.162 222.3 3.4 214 13
2006-04-25 07:51:43 51°11.115 2°42.159 225.3 3.4 218 13
2006-04-25 07:51:50 51°11.11 2°42.153 228.4 3.3 222 13
2006-04-25 07:51:56 51°11.106 2°42.146 231.9 3.3 225 13
2006-04-25 07:52:01 51°11.103 2°42.141 235.3 3.4 228 13
2006-04-25 07:52:06 51°11.1 2°42.135 238.8 3.3 233 13
2006-04-25 07:52:10 51°11.099 2°42.13 241.6 3.3 237 13
2006-04-25 07:52:16 51°11.096 2°42.122 245.2 3.3 240 13.1
2006-04-25 07:52:20 51°11.094 2°42.117 248.5 3.3 243 13
2006-04-25 07:52:26 51°11.093 2°42.11 252.1 3 249 13.1
2006-04-25 07:52:30 51°11.092 2°42.105 255.8 2.8 250 13.1
2006-04-25 07:52:36 51°11.091 2°42.097 258.5 2.9 257 13.1
2006-04-25 07:52:40 51°11.09 2°42.092 260.4 3.1 255 13.1
2006-04-25 07:52:46 51°11.09 2°42.084 264 3 260 13
2006-04-25 07:52:50 51°11.089 2°42.08 268.1 2.7 266 13.1
2006-04-25 07:52:56 51°11.09 2°42.074 270.8 2.4 270 13.1
2006-04-25 07:53:00 51°11.089 2°42.071 273 2 271 13
2006-04-25 07:53:06 51°11.09 2°42.068 275.8 1.4 279 13.1
2006-04-25 07:53:10 51°11.09 2°42.066 280 1 281 13
2006-04-25 07:53:16 51°11.091 2°42.065 283.9 0.6 296 13.1
2006-04-25 07:53:20 51°11.091 2°42.065 287.9 0.3 289 13.1
2006-04-25 07:53:25 51°11.091 2°42.066 291.7 0.1 40 13.1
2006-04-25 07:53:31 51°11.092 2°42.066 295.5 0.2 53 13.1
2006-04-25 07:53:36 51°11.092 2°42.067 299.2 0.4 58 13.1
2006-04-25 07:53:40 51°11.092 2°42.068 302.6 0.4 51 13.1
2006-04-25 07:53:45 51°11.093 2°42.069 305.9 0.6 54 13.1
2006-04-25 07:53:51 51°11.093 2°42.07 309.1 0.6 55 13.1
2006-04-25 07:53:56 51°11.094 2°42.071 312.5 0.6 60 13.1
2006-04-25 07:54:00 51°11.094 2°42.072 315.7 0.6 63 13.1
2006-04-25 07:54:06 51°11.095 2°42.074 319.2 0.7 63 13.1
2006-04-25 07:54:10 51°11.095 2°42.075 322.5 0.8 60 13.1
2006-04-25 07:54:16 51°11.096 2°42.077 325.8 0.8 61 13.1
2006-04-25 07:54:20 51°11.096 2°42.079 329.2 0.9 60 13.1
2006-04-25 07:54:26 51°11.097 2°42.081 332.4 0.9 60 13.1
2006-04-25 07:54:30 51°11.097 2°42.082 335.4 0.9 62 13.2
2006-04-25 07:54:36 51°11.098 2°42.084 338.2 0.8 64 13.1
2006-04-25 07:54:40 51°11.098 2°42.086 341.1 0.9 65 13.1
2006-04-25 07:54:46 51°11.099 2°42.088 343.7 0.9 69 13
2006-04-25 07:54:51 51°11.099 2°42.09 346.2 0.9 68 -999
2006-04-25 07:54:56 51°11.099 2°42.092 348.5 0.9 66 4.9
2006-04-25 07:55:00 51°11.1 2°42.093 350.7 1 66 13.1
2006-04-25 07:55:06 51°11.1 2°42.095 352.7 0.9 68 13.1
2006-04-25 07:55:11 51°11.101 2°42.098 354.5 1 70 13.1
2006-04-25 07:55:16 51°11.101 2°42.1 355.9 1 68 13.1
2006-04-25 07:55:20 51°11.102 2°42.101 357.8 1 68 13.1
2006-04-25 07:55:26 51°11.103 2°42.104 359.5 1 69 13.1
2006-04-25 07:55:31 51°11.103 2°42.106 0.6 1.1 69 13.1
2006-04-25 07:55:36 51°11.104 2°42.108 1.9 1 71 13.1
2006-04-25 07:55:40 51°11.104 2°42.11 2.8 1.1 69 13.1
2006-04-25 07:55:46 51°11.105 2°42.112 3.7 1 68 13.2
2006-04-25 07:55:50 51°11.105 2°42.114 4.6 1.1 71 13.1
2006-04-25 07:55:55 51°11.105 2°42.116 5.6 1 68 13.2
2006-04-25 07:56:00 51°11.106 2°42.118 6.1 1.1 68 13.2
2006-04-25 07:56:06 51°11.106 2°42.121 6.5 1 67 13.1
2006-04-25 07:56:10 51°11.107 2°42.123 7.1 1.1 71 13.1
2006-04-25 07:56:16 51°11.107 2°42.125 7.2 1 70 13.1
2006-04-25 07:56:20 51°11.108 2°42.127 7.6 1.1 71 13.2
2006-04-25 07:56:25 51°11.108 2°42.129 7.8 1.1 72 13.1
2006-04-25 07:56:30 51°11.109 2°42.132 8 1.1 72 13.2
2006-04-25 07:56:36 51°11.109 2°42.135 8.5 1.1 72 13.2
2006-04-25 07:56:40 51°11.11 2°42.137 8.7 1.2 72 13.2
2006-04-25 07:56:46 51°11.111 2°42.139 8.8 1.1 71 13.2
2006-04-25 07:56:50 51°11.111 2°42.141 8.9 1.1 71 13.2
2006-04-25 07:56:56 51°11.112 2°42.144 9 1.2 73 13.2
2006-04-25 07:57:00 51°11.112 2°42.146 9 1.1 71 13.2
2006-04-25 07:57:06 51°11.112 2°42.149 8.8 1.1 72 13.2
2006-04-25 07:57:11 51°11.113 2°42.151 8.8 1.1 72 13.1
2006-04-25 07:57:16 51°11.113 2°42.153 8.7 1.1 72 13.2
2006-04-25 07:57:20 51°11.114 2°42.155 8.4 1.1 72 13.2
2006-04-25 07:57:26 51°11.114 2°42.158 8 1.1 71 13.1
2006-04-25 07:57:30 51°11.114 2°42.16 7.8 1.1 73 13.2
2006-04-25 07:57:36 51°11.115 2°42.163 7.5 1.1 72 13.1
2006-04-25 07:57:40 51°11.115 2°42.165 7.3 1.2 72 13.2
2006-04-25 07:57:46 51°11.116 2°42.168 7.1 1.2 73 13.2
2006-04-25 07:57:51 51°11.116 2°42.17 6.9 1.2 75 13.2
2006-04-25 07:57:56 51°11.117 2°42.173 6.9 1.2 72 13.2
2006-04-25 07:58:00 51°11.117 2°42.174 6.7 1.2 74 13.2
2006-04-25 07:58:06 51°11.118 2°42.177 6.5 1.1 74 13.2
2006-04-25 07:58:10 51°11.118 2°42.179 6.4 1.2 73 13.2
2006-04-25 07:58:16 51°11.119 2°42.182 6.2 1.2 72 13.2
2006-04-25 07:58:20 51°11.119 2°42.184 5.8 1.2 70 13.2
2006-04-25 07:58:24 51°11.119 2°42.186 5.8 1.1 74 13.2